KDNS/DNS METAR and TAF weather

Enter ICAO airport designator
Station Type Date Time Source
KDNS METAR 2020/04/07 04:35 UTC NOAA

KDNS 070435Z AUTO 16012KT 7SM CLR 14/14 A2976 RMK AO2


Station Type Date Time Source
KDNS Decoded METAR 2020/04/07 04:35 UTC NOAA

Denison, IA, United States (KDNS) 41-59N 095-23W
Apr 07, 2020 - 12:35 AM EDT / 2020.04.07 0435 UTC
Wind: from the SSE (160 degrees) at 14 MPH (12 KT):0
Visibility: 7 mile(s):0
Sky conditions: clear
Temperature: 57 F (14 C)
Dew Point: 57 F (14 C)
Relative Humidity: 100%
Pressure (altimeter): 29.76 in. Hg (1007 hPa)
ob: KDNS 070435Z AUTO 16012KT 7SM CLR 14/14 A2976 RMK AO2
cycle: 4

Station Type Date Time Source
KDNS TAF UTC NOAA

Error!

Example: see airport list